createdAt,value
2018-11-01T00:01:01.469Z,34.07
2018-11-01T00:03:30.968Z,36.77
2018-11-01T00:06:00.216Z,36.47
2018-11-01T00:08:29.499Z,32.93
2018-11-01T00:10:58.748Z,32.60
2018-11-01T00:13:28.245Z,32.80
2018-11-01T00:15:58.169Z,35.27
2018-11-01T00:18:27.671Z,36.77
2018-11-01T00:20:56.926Z,32.57
2018-11-01T00:23:26.428Z,37.33
2018-11-01T00:25:55.985Z,31.20
2018-11-01T00:28:25.852Z,33.93
2018-11-01T00:30:55.380Z,35.37
2018-11-01T00:33:24.876Z,39.67
2018-11-01T00:35:54.393Z,32.70
2018-11-01T00:38:23.920Z,35.93
2018-11-01T00:40:53.429Z,34.20
2018-11-01T00:43:22.925Z,37.60
2018-11-01T00:45:52.439Z,39.07
2018-11-01T00:48:21.929Z,33.87
2018-11-01T00:50:51.476Z,30.80
2018-11-01T00:53:21.026Z,33.07
2018-11-01T00:55:50.701Z,37.60
2018-11-01T00:58:20.213Z,29.73
2018-11-01T01:00:49.736Z,30.93
2018-11-01T01:03:19.297Z,29.30
2018-11-01T01:05:48.479Z,34.83
2018-11-01T01:08:17.913Z,32.00
2018-11-01T01:10:47.421Z,33.63
2018-11-01T01:13:16.956Z,32.93
2018-11-01T01:15:46.472Z,30.83
2018-11-01T01:18:15.981Z,29.80
2018-11-01T01:20:45.485Z,31.40
2018-11-01T01:23:14.992Z,27.93
2018-11-01T01:25:44.496Z,32.57
2018-11-01T01:28:14.001Z,31.87
2018-11-01T01:30:43.496Z,33.10
2018-11-01T01:33:13.004Z,28.77
2018-11-01T01:35:42.513Z,28.80
2018-11-01T01:38:12.017Z,31.00
2018-11-01T01:40:41.533Z,31.40
2018-11-01T01:43:11.041Z,28.53
2018-11-01T01:45:40.533Z,27.33
2018-11-01T01:48:10.088Z,26.77
2018-11-01T01:50:39.662Z,24.67
2018-11-01T01:53:09.312Z,26.70
2018-11-01T01:55:38.825Z,32.87
2018-11-01T01:58:10.458Z,28.90
2018-11-01T02:00:39.978Z,27.33
2018-11-01T02:03:09.489Z,25.87
2018-11-01T02:05:38.673Z,26.77
2018-11-01T02:08:08.100Z,32.30
2018-11-01T02:10:37.597Z,28.77
2018-11-01T02:13:07.125Z,29.73
2018-11-01T02:15:36.632Z,28.63
2018-11-01T02:18:06.500Z,28.97
2018-11-01T02:20:35.998Z,26.60
2018-11-01T02:23:05.960Z,30.30
2018-11-01T02:25:35.553Z,29.47
2018-11-01T02:28:10.397Z,25.03
2018-11-01T02:30:39.976Z,27.70
2018-11-01T02:33:09.504Z,28.73
2018-11-01T02:35:39.162Z,28.13
2018-11-01T02:38:08.792Z,31.63
2018-11-01T02:40:38.394Z,26.40
2018-11-01T02:43:07.910Z,30.23
2018-11-01T02:45:37.438Z,25.37
2018-11-01T02:48:06.975Z,26.67
2018-11-01T02:50:36.492Z,31.03
2018-11-01T02:53:06.054Z,25.03
2018-11-01T02:55:35.589Z,30.13
2018-11-01T02:58:05.388Z,28.97
2018-11-01T03:00:34.896Z,27.00
2018-11-01T03:03:04.475Z,28.20
2018-11-01T03:05:33.979Z,26.40
2018-11-01T03:08:03.512Z,25.70
2018-11-01T03:10:32.773Z,28.97
2018-11-01T03:13:02.272Z,27.90
2018-11-01T03:15:31.813Z,22.50
2018-11-01T03:18:01.318Z,20.97
2018-11-01T03:20:30.833Z,27.53
2018-11-01T03:23:00.368Z,24.23
2018-11-01T03:25:29.872Z,26.70
2018-11-01T03:27:59.400Z,28.77
2018-11-01T03:30:28.937Z,23.10
2018-11-01T03:32:58.449Z,27.03
2018-11-01T03:35:27.945Z,24.77
2018-11-01T03:37:57.469Z,24.33
2018-11-01T03:40:27.180Z,20.97
2018-11-01T03:42:56.688Z,25.70
2018-11-01T03:45:26.230Z,24.13
2018-11-01T03:47:55.580Z,20.37
2018-11-01T03:50:25.009Z,22.40
2018-11-01T03:52:54.536Z,21.53
2018-11-01T03:55:24.044Z,27.13
2018-11-01T03:57:53.548Z,23.80
2018-11-01T04:00:23.057Z,23.00
2018-11-01T04:02:52.212Z,22.87
2018-11-01T04:05:21.687Z,21.23
2018-11-01T04:07:51.601Z,20.37
2018-11-01T04:10:21.112Z,19.83
2018-11-01T04:12:50.621Z,20.43
2018-11-01T04:15:20.216Z,21.03
2018-11-01T04:17:49.897Z,19.87
2018-11-01T04:20:19.403Z,17.60
2018-11-01T04:22:48.904Z,22.80
2018-11-01T04:25:18.416Z,19.57
2018-11-01T04:27:47.932Z,19.43
2018-11-01T04:30:17.432Z,19.20
2018-11-01T04:32:46.977Z,21.07
2018-11-01T04:35:16.492Z,23.67
2018-11-01T04:37:46.001Z,19.10
2018-11-01T04:40:15.552Z,21.27
2018-11-01T04:42:45.053Z,18.73
2018-11-01T04:45:14.623Z,19.17
2018-11-01T04:47:44.440Z,19.87
2018-11-01T04:50:14.008Z,23.13
2018-11-01T04:52:43.625Z,20.33
2018-11-01T04:55:13.176Z,21.77
2018-11-01T04:57:42.660Z,19.57
2018-11-01T05:00:14.265Z,19.37
2018-11-01T05:02:44.190Z,21.67
2018-11-01T05:05:13.884Z,18.90
2018-11-01T05:07:43.453Z,21.90
2018-11-01T05:10:13.417Z,15.20
2018-11-01T05:12:42.724Z,18.37
2018-11-01T05:15:12.421Z,18.60
2018-11-01T05:17:42.116Z,18.13
2018-11-01T05:20:12.688Z,20.20
2018-11-01T05:22:42.252Z,18.37
2018-11-01T05:25:12.012Z,22.07
2018-11-01T05:27:41.840Z,19.40
2018-11-01T05:30:13.057Z,14.83
2018-11-01T05:32:43.081Z,17.27
2018-11-01T05:35:12.982Z,15.77
2018-11-01T05:37:42.525Z,15.90
2018-11-01T05:40:12.929Z,15.50
2018-11-01T05:42:43.408Z,16.80
2018-11-01T05:45:13.307Z,13.83
2018-11-01T05:47:42.878Z,16.07
2018-11-01T05:50:12.773Z,19.27
2018-11-01T05:52:42.352Z,14.50
2018-11-01T05:55:11.893Z,15.43
2018-11-01T05:57:41.457Z,19.33
2018-11-01T06:00:13.269Z,16.13
2018-11-01T06:02:47.640Z,17.73
2018-11-01T06:05:27.858Z,13.20
2018-11-01T06:07:59.682Z,15.87
2018-11-01T06:10:29.269Z,15.50
2018-11-01T06:12:58.761Z,17.50
2018-11-01T06:15:28.333Z,14.23
2018-11-01T06:17:57.841Z,12.87
2018-11-01T06:20:27.356Z,20.23
2018-11-01T06:22:56.804Z,14.40
2018-11-01T06:25:26.229Z,13.20
2018-11-01T06:27:55.736Z,16.43
2018-11-01T06:30:25.265Z,15.23
2018-11-01T06:32:55.440Z,15.03
2018-11-01T06:35:27.229Z,16.87
2018-11-01T06:37:56.781Z,16.13
2018-11-01T06:40:26.321Z,15.97
2018-11-01T06:42:55.827Z,20.87
2018-11-01T06:45:25.404Z,16.63
2018-11-01T06:47:55.005Z,16.03
2018-11-01T06:50:28.656Z,16.93
2018-11-01T06:52:58.150Z,18.53
2018-11-01T06:55:27.872Z,14.13
2018-11-01T06:57:57.412Z,12.27
2018-11-01T07:00:26.961Z,13.90
2018-11-01T07:02:56.533Z,11.07
2018-11-01T07:05:25.676Z,10.57
2018-11-01T07:07:55.144Z,13.50
2018-11-01T07:10:24.726Z,16.27
2018-11-01T07:12:54.232Z,17.83
2018-11-01T07:15:23.837Z,16.03
2018-11-01T07:17:53.349Z,15.73
2018-11-01T07:20:22.900Z,13.90
2018-11-01T07:22:52.434Z,15.53
2018-11-01T07:25:22.004Z,14.73
2018-11-01T07:27:51.697Z,14.40
2018-11-01T07:30:21.213Z,22.60
2018-11-01T07:32:50.840Z,38.87
2018-11-01T07:35:20.482Z,49.40
2018-11-01T07:37:49.997Z,31.20
2018-11-01T07:40:19.784Z,28.10
2018-11-01T07:42:49.300Z,15.87
2018-11-01T07:45:18.823Z,12.97
2018-11-01T07:47:48.368Z,16.17
2018-11-01T07:50:17.901Z,12.03
2018-11-01T07:52:47.439Z,14.57
2018-11-01T07:55:16.791Z,19.27
2018-11-01T07:57:46.224Z,15.27
2018-11-01T08:00:17.794Z,11.90
2018-11-01T08:02:47.874Z,10.00
2018-11-01T08:05:17.708Z,16.97
2018-11-01T08:07:47.288Z,13.10
2018-11-01T08:10:17.809Z,12.70
2018-11-01T08:12:48.066Z,15.97
2018-11-01T08:15:19.069Z,13.43
2018-11-01T08:17:48.616Z,19.73
2018-11-01T08:20:18.731Z,15.53
2018-11-01T08:22:48.112Z,15.33
2018-11-01T08:25:17.648Z,13.10
2018-11-01T08:27:47.240Z,11.90
2018-11-01T08:30:17.888Z,12.57
2018-11-01T08:32:47.458Z,17.10
2018-11-01T08:35:16.969Z,11.33
2018-11-01T08:37:46.505Z,14.53
2018-11-01T08:40:16.036Z,13.00
2018-11-01T08:42:45.548Z,17.70
2018-11-01T08:45:15.828Z,15.80
2018-11-01T08:47:45.352Z,15.27
2018-11-01T08:50:15.637Z,11.13
2018-11-01T08:52:45.460Z,11.90
2018-11-01T08:55:15.274Z,21.70
2018-11-01T08:57:45.588Z,13.53
2018-11-01T09:00:15.432Z,19.13
2018-11-01T09:02:45.256Z,13.57
2018-11-01T09:05:15.024Z,14.90
2018-11-01T09:07:45.107Z,11.07
2018-11-01T09:10:16.011Z,11.23
2018-11-01T09:12:45.865Z,11.70
2018-11-01T09:15:16.632Z,9.77
2018-11-01T09:17:46.180Z,12.43
2018-11-01T09:20:15.704Z,17.77
2018-11-01T09:22:45.219Z,13.47
2018-11-01T09:25:14.733Z,11.07
2018-11-01T09:27:44.256Z,15.27
2018-11-01T09:30:15.049Z,13.90
2018-11-01T09:32:44.570Z,20.20
2018-11-01T09:35:14.107Z,18.53
2018-11-01T09:37:43.869Z,13.37
2018-11-01T09:40:15.281Z,21.17
2018-11-01T09:42:45.839Z,13.98
2018-11-01T09:45:15.922Z,10.13
2018-11-01T09:47:46.119Z,10.65
2018-11-01T09:50:16.281Z,11.10
2018-11-01T09:52:46.094Z,17.10
2018-11-01T09:55:16.210Z,16.00
2018-11-01T09:57:46.297Z,13.13
2018-11-01T10:00:16.432Z,16.55
2018-11-01T10:02:46.513Z,19.05
2018-11-01T10:05:16.677Z,10.40
2018-11-01T10:07:46.787Z,19.25
2018-11-01T10:10:16.848Z,20.65
2018-11-01T10:12:46.924Z,17.75
2018-11-01T10:15:17.030Z,17.23
2018-11-01T10:17:47.781Z,16.60
2018-11-01T10:20:17.602Z,16.97
2018-11-01T10:22:47.434Z,23.63
2018-11-01T10:25:17.169Z,12.37
2018-11-01T10:27:46.945Z,18.90
2018-11-01T10:30:18.245Z,17.83
2018-11-01T10:32:47.761Z,10.50
2018-11-01T10:35:18.257Z,13.13
2018-11-01T10:37:47.776Z,23.67
2018-11-01T10:40:18.697Z,14.20
2018-11-01T10:42:48.221Z,11.27
2018-11-01T10:45:17.772Z,15.17
2018-11-01T10:47:47.379Z,13.47
2018-11-01T10:50:18.100Z,12.50
2018-11-01T10:52:47.524Z,16.63
2018-11-01T10:55:17.065Z,16.10
2018-11-01T10:57:47.153Z,12.23
2018-11-01T11:00:22.743Z,10.78
2018-11-01T11:02:53.188Z,17.37
2018-11-01T11:05:23.484Z,14.40
2018-11-01T11:07:53.596Z,14.33
2018-11-01T11:10:23.660Z,13.60
2018-11-01T11:12:53.777Z,20.12
2018-11-01T11:15:23.842Z,17.80
2018-11-01T11:17:53.957Z,16.30
2018-11-01T11:20:24.207Z,17.67
2018-11-01T11:22:53.752Z,16.20
2018-11-01T11:25:23.293Z,16.30
2018-11-01T11:27:52.794Z,14.13
2018-11-01T11:30:22.330Z,17.03
2018-11-01T11:32:52.037Z,16.90
2018-11-01T11:35:21.609Z,16.97
2018-11-01T11:37:51.273Z,16.90
2018-11-01T11:40:20.817Z,17.60
2018-11-01T11:42:50.332Z,19.93
2018-11-01T11:45:19.840Z,16.73
2018-11-01T11:47:49.361Z,20.43
2018-11-01T11:50:18.860Z,15.23
2018-11-01T11:52:48.405Z,16.30
2018-11-01T11:55:17.944Z,21.90
2018-11-01T11:57:47.508Z,21.87
2018-11-01T12:00:17.065Z,27.00
2018-11-01T12:02:47.051Z,16.83
2018-11-01T12:05:16.602Z,15.60
2018-11-01T12:07:46.290Z,18.70
2018-11-01T12:10:15.801Z,22.37
2018-11-01T12:12:44.948Z,21.23
2018-11-01T12:15:14.441Z,24.13
2018-11-01T12:17:43.951Z,23.37
2018-11-01T12:20:14.194Z,14.17
2018-11-01T12:22:43.701Z,18.23
2018-11-01T12:25:13.224Z,24.57
2018-11-01T12:27:42.740Z,16.90
2018-11-01T12:30:12.889Z,14.53
2018-11-01T12:32:42.408Z,31.43
2018-11-01T12:35:12.044Z,18.13
2018-11-01T12:37:41.660Z,13.07
2018-11-01T12:40:12.597Z,13.97
2018-11-01T12:42:42.116Z,14.97
2018-11-01T12:45:12.841Z,16.90
2018-11-01T12:47:42.696Z,18.53
2018-11-01T12:50:13.553Z,18.20
2018-11-01T12:52:43.141Z,15.77
2018-11-01T12:55:12.676Z,20.67
2018-11-01T12:57:42.544Z,22.13
2018-11-01T13:00:13.150Z,17.07
2018-11-01T13:02:42.933Z,15.53
2018-11-01T13:05:12.537Z,16.03
2018-11-01T13:07:42.052Z,11.40
2018-11-01T13:10:11.644Z,20.97
2018-11-01T13:12:41.158Z,12.27
2018-11-01T13:15:11.640Z,29.33
2018-11-01T13:17:41.337Z,51.27
2018-11-01T13:20:11.449Z,18.90
2018-11-01T13:22:41.016Z,39.00
2018-11-01T13:25:11.589Z,26.87
2018-11-01T13:27:41.332Z,47.10
2018-11-01T13:30:13.065Z,48.70
2018-11-01T13:32:43.724Z,50.27
2018-11-01T13:35:13.723Z,35.03
2018-11-01T13:37:43.528Z,14.43
2018-11-01T13:40:13.389Z,15.83
2018-11-01T13:42:42.819Z,12.00
2018-11-01T13:45:12.337Z,14.03
2018-11-01T13:47:41.863Z,14.47
2018-11-01T13:50:12.312Z,13.77
2018-11-01T13:52:41.548Z,12.93
2018-11-01T13:55:12.169Z,13.60
2018-11-01T13:57:41.664Z,11.17
2018-11-01T14:00:12.693Z,16.57
2018-11-01T14:02:42.581Z,18.33
2018-11-01T14:05:13.457Z,27.10
2018-11-01T14:07:43.640Z,17.40
2018-11-01T14:10:15.204Z,17.37
2018-11-01T14:12:44.704Z,14.90
2018-11-01T14:15:14.485Z,15.47
2018-11-01T14:17:43.968Z,16.00
2018-11-01T14:20:14.037Z,17.57
2018-11-01T14:22:43.552Z,14.17
2018-11-01T14:25:13.537Z,13.77
2018-11-01T14:27:43.516Z,14.33
2018-11-01T14:30:15.772Z,14.50
2018-11-01T14:32:45.256Z,15.60
2018-11-01T14:35:14.784Z,12.23
2018-11-01T14:37:44.352Z,19.20
2018-11-01T14:40:14.745Z,24.63
2018-11-01T14:42:44.292Z,15.97
2018-11-01T14:45:13.793Z,20.70
2018-11-01T14:47:43.473Z,16.60
2018-11-01T14:50:13.078Z,15.30
2018-11-01T14:52:43.065Z,15.20
2018-11-01T14:55:12.985Z,14.00
2018-11-01T14:57:43.857Z,14.77
2018-11-01T15:00:12.465Z,18.13
2018-11-01T15:02:41.958Z,21.83
2018-11-01T15:05:11.618Z,24.13
2018-11-01T15:07:41.416Z,21.90
2018-11-01T15:10:12.518Z,18.93
2018-11-01T15:12:42.169Z,14.80
2018-11-01T15:15:11.797Z,21.80
2018-11-01T15:17:41.871Z,20.33
2018-11-01T15:20:11.758Z,23.20
2018-11-01T15:22:41.392Z,29.53
2018-11-01T15:25:11.585Z,18.87
2018-11-01T15:27:41.356Z,19.03
2018-11-01T15:30:13.083Z,24.63
2018-11-01T15:32:42.816Z,17.97
2018-11-01T15:35:12.368Z,19.20
2018-11-01T15:37:42.253Z,17.53
2018-11-01T15:40:12.324Z,20.13
2018-11-01T15:42:42.498Z,16.63
2018-11-01T15:45:12.559Z,19.80
2018-11-01T15:47:42.624Z,19.33
2018-11-01T15:50:12.909Z,22.23
2018-11-01T15:52:42.703Z,23.43
2018-11-01T15:55:11.852Z,28.77
2018-11-01T15:57:41.288Z,26.77
2018-11-01T16:00:12.421Z,80.13
2018-11-01T16:02:43.030Z,64.00
2018-11-01T16:05:13.268Z,150.13
2018-11-01T16:07:43.018Z,104.90
2018-11-01T16:10:12.866Z,35.97
2018-11-01T16:12:43.132Z,37.93
2018-11-01T16:15:14.449Z,37.20
2018-11-01T16:17:43.944Z,47.80
2018-11-01T16:20:14.138Z,34.07
2018-11-01T16:22:43.418Z,26.67
2018-11-01T16:25:12.544Z,26.67
2018-11-01T16:27:42.217Z,18.27
2018-11-01T16:30:12.414Z,27.33
2018-11-01T16:32:41.932Z,25.33
2018-11-01T16:35:11.888Z,22.63
2018-11-01T16:37:41.600Z,24.70
2018-11-01T16:40:11.920Z,28.60
2018-11-01T16:42:41.515Z,24.97
2018-11-01T16:45:14.470Z,19.43
2018-11-01T16:47:45.340Z,21.07
2018-11-01T16:50:15.038Z,24.57
2018-11-01T16:52:44.553Z,20.77
2018-11-01T16:55:13.724Z,29.07
2018-11-01T16:57:43.132Z,21.37
2018-11-01T17:00:13.586Z,30.67
2018-11-01T17:02:43.480Z,24.70
2018-11-01T17:05:12.675Z,31.10
2018-11-01T17:07:42.030Z,34.53
2018-11-01T17:10:12.548Z,23.50
2018-11-01T17:12:42.088Z,34.90
2018-11-01T17:17:48.901Z,26.30
2018-11-01T17:20:18.456Z,23.23
2018-11-01T17:22:47.977Z,19.27
2018-11-01T17:25:17.489Z,20.70
2018-11-01T17:27:47.040Z,20.27
2018-11-01T17:30:16.593Z,20.53
2018-11-01T17:32:51.419Z,20.93
2018-11-01T17:35:20.834Z,23.77
2018-11-01T17:37:50.349Z,22.77
2018-11-01T17:40:19.902Z,24.00
2018-11-01T17:42:49.064Z,24.30
2018-11-01T17:45:18.474Z,20.53
2018-11-01T17:47:48.024Z,21.30
2018-11-01T17:50:17.815Z,23.10
2018-11-01T17:52:47.342Z,22.93
2018-11-01T17:55:16.858Z,16.00
2018-11-01T17:57:50.188Z,18.60
2018-11-01T18:00:20.353Z,20.67
2018-11-01T18:02:50.177Z,30.37
2018-11-01T18:05:19.901Z,39.80
2018-11-01T18:07:49.461Z,23.37
2018-11-01T18:10:19.049Z,28.10
2018-11-01T18:12:48.304Z,27.13
2018-11-01T18:15:17.837Z,28.47
2018-11-01T18:17:47.357Z,40.73
2018-11-01T18:20:16.921Z,22.83
2018-11-01T18:22:46.512Z,27.53
2018-11-01T18:25:16.762Z,19.90
2018-11-01T18:27:46.215Z,31.47
2018-11-01T18:30:16.822Z,24.77
2018-11-01T18:32:46.903Z,20.17
2018-11-01T18:35:16.135Z,22.97
2018-11-01T18:37:45.621Z,24.60
2018-11-01T18:40:18.185Z,23.67
2018-11-01T18:42:47.804Z,21.93
2018-11-01T18:45:17.532Z,20.53
2018-11-01T18:47:47.052Z,18.83
2018-11-01T18:50:16.936Z,23.47
2018-11-01T18:52:46.382Z,23.23
2018-11-01T18:55:15.962Z,25.10
2018-11-01T18:57:45.525Z,21.23
2018-11-01T19:00:16.050Z,20.37
2018-11-01T19:02:45.916Z,19.20
2018-11-01T19:05:15.596Z,25.40
2018-11-01T19:07:45.684Z,19.17
2018-11-01T19:10:15.629Z,24.73
2018-11-01T19:12:45.387Z,22.20
2018-11-01T19:15:15.144Z,21.37
2018-11-01T19:17:44.764Z,26.10
2018-11-01T19:20:14.325Z,23.10
2018-11-01T19:22:43.848Z,22.23
2018-11-01T19:25:13.429Z,28.07
2018-11-01T19:27:43.300Z,30.87
2018-11-01T19:30:13.529Z,26.57
2018-11-01T19:32:43.448Z,28.77
2018-11-01T19:35:13.673Z,31.10
2018-11-01T19:37:43.229Z,31.17
2018-11-01T19:40:14.568Z,28.17
2018-11-01T19:42:44.332Z,28.43
2018-11-01T19:45:13.810Z,28.40
2018-11-01T19:47:43.531Z,28.20
2018-11-01T19:50:14.421Z,30.43
2018-11-01T19:52:44.100Z,27.73
2018-11-01T19:55:14.224Z,29.83
2018-11-01T19:57:43.752Z,30.50
2018-11-01T20:00:15.829Z,32.87
2018-11-01T20:02:46.205Z,36.13
2018-11-01T20:05:15.511Z,30.83
2018-11-01T20:07:45.215Z,35.47
2018-11-01T20:10:16.948Z,39.50
2018-11-01T20:12:46.948Z,33.47
2018-11-01T20:15:16.505Z,30.10
2018-11-01T20:17:46.221Z,26.53
2018-11-01T20:20:15.641Z,36.27
2018-11-01T20:22:45.988Z,34.37
2018-11-01T20:25:15.541Z,42.60
2018-11-01T20:27:45.235Z,29.57
2018-11-01T20:30:16.216Z,32.83
2018-11-01T20:32:46.028Z,42.07
2018-11-01T20:35:16.289Z,32.40
2018-11-01T20:37:45.830Z,39.17
2018-11-01T20:40:15.553Z,28.53
2018-11-01T20:42:45.606Z,34.10
2018-11-01T20:45:15.130Z,34.73
2018-11-01T20:47:44.692Z,33.27
2018-11-01T20:50:14.837Z,44.70
2018-11-01T20:52:44.610Z,30.00
2018-11-01T20:55:14.312Z,34.13
2018-11-01T20:57:44.051Z,32.17
2018-11-01T21:00:14.693Z,30.77
2018-11-01T21:02:44.273Z,30.63
2018-11-01T21:05:14.158Z,30.77
2018-11-01T21:07:43.885Z,38.23
2018-11-01T21:10:13.439Z,32.20
2018-11-01T21:12:43.030Z,26.70
2018-11-01T21:15:14.185Z,32.67
2018-11-01T21:17:43.689Z,28.90
2018-11-01T21:20:13.253Z,28.43
2018-11-01T21:22:42.748Z,28.27
2018-11-01T21:25:12.712Z,33.47
2018-11-01T21:27:42.696Z,27.77
2018-11-01T21:30:12.559Z,32.53
2018-11-01T21:32:42.241Z,31.17
2018-11-01T21:35:11.818Z,35.97
2018-11-01T21:37:41.520Z,32.43
2018-11-01T21:40:12.736Z,25.30
2018-11-01T21:42:42.248Z,40.33
2018-11-01T21:45:13.313Z,30.13
2018-11-01T21:47:43.391Z,23.10
2018-11-01T21:50:13.232Z,36.30
2018-11-01T21:52:42.734Z,28.23
2018-11-01T21:55:12.248Z,28.27
2018-11-01T21:57:41.752Z,30.83
2018-11-01T22:00:11.540Z,26.00
2018-11-01T22:02:41.993Z,30.90
2018-11-01T22:05:11.782Z,21.13
2018-11-01T22:07:41.512Z,21.70
2018-11-01T22:10:11.508Z,31.97
2018-11-01T22:12:41.024Z,29.33
2018-11-01T22:15:11.880Z,33.23
2018-11-01T22:17:42.173Z,28.87
2018-11-01T22:20:12.047Z,36.33
2018-11-01T22:22:41.392Z,27.30
2018-11-01T22:25:10.813Z,28.37
2018-11-01T22:27:40.307Z,35.10
2018-11-01T22:30:10.937Z,27.10
2018-11-01T22:32:41.264Z,33.27
2018-11-01T22:35:11.285Z,29.23
2018-11-01T22:37:41.464Z,34.27
2018-11-01T22:40:10.879Z,32.50
2018-11-01T22:42:40.384Z,37.00
2018-11-01T22:45:11.188Z,27.13
2018-11-01T22:47:41.273Z,31.33
2018-11-01T22:50:11.613Z,34.83
2018-11-01T22:52:41.828Z,26.83
2018-11-01T22:55:12.289Z,32.80
2018-11-01T22:57:42.063Z,36.67
2018-11-01T23:00:15.267Z,25.30
2018-11-01T23:02:45.170Z,27.97
2018-11-01T23:05:14.885Z,27.13
2018-11-01T23:07:44.401Z,33.73
2018-11-01T23:10:15.132Z,24.37
2018-11-01T23:12:44.868Z,31.03
2018-11-01T23:15:14.544Z,24.10
2018-11-01T23:17:44.072Z,25.50
2018-11-01T23:20:14.017Z,25.33
2018-11-01T23:22:43.520Z,26.43
2018-11-01T23:25:13.428Z,30.37
2018-11-01T23:27:43.292Z,28.10
2018-11-01T23:30:12.804Z,33.40
2018-11-01T23:32:42.547Z,25.17
2018-11-01T23:35:12.476Z,31.97
2018-11-01T23:37:47.185Z,22.57
2018-11-01T23:40:22.219Z,27.13
2018-11-01T23:42:57.128Z,34.63
2018-11-01T23:45:32.009Z,27.23
2018-11-01T23:48:00.882Z,29.10
2018-11-01T23:50:40.963Z,31.37
2018-11-01T23:53:14.369Z,21.83
2018-11-01T23:55:43.921Z,28.67
2018-11-01T23:58:13.460Z,32.70
